Terminal Aerodrome Forecast
Issued by NWS

Home | Current Version | Previous Version | Text Only | Print | Product List | Glossary On
Versions: 1 2 3 4 5 6 7 8 9 10 11 12 13 14 15 16 17 18 19 20 21 22 23
812
FTUS41 KPBZ 031133
TAFLBE
TAF
KLBE 031133Z 0312/0412 00000KT P6SM VCSH OVC015
     FM031400 35003KT P6SM VCSH BKN025
     FM031500 29005KT P6SM BKN050=

USA.gov is the U.S. government's official web portal to all federal, state and local government web resources and services.